sensor_id;sensor_type;location;lat;lon;timestamp;pressure;altitude;pressure_sealevel;temperature;humidity
50684;BME280;36654;45.042;38.994;2022-09-02T00:00:43;100743.94;;;25.09;51.79
50684;BME280;36654;45.042;38.994;2022-09-02T00:03:09;100791.06;;;25.26;51.68
50684;BME280;36654;45.042;38.994;2022-09-02T00:05:35;100797.69;;;25.20;51.98
50684;BME280;36654;45.042;38.994;2022-09-02T00:08:03;100808.16;;;25.09;52.02
50684;BME280;36654;45.042;38.994;2022-09-02T00:10:29;100803.81;;;25.05;52.41
50684;BME280;36654;45.042;38.994;2022-09-02T00:12:55;100818.19;;;25.07;52.30
50684;BME280;36654;45.042;38.994;2022-09-02T00:15:20;100820.53;;;25.14;52.35
50684;BME280;36654;45.042;38.994;2022-09-02T00:17:47;100779.34;;;24.87;52.34
50684;BME280;36654;45.042;38.994;2022-09-02T00:20:13;100825.97;;;25.14;52.57
50684;BME280;36654;45.042;38.994;2022-09-02T00:22:38;100827.00;;;25.12;52.49
50684;BME280;36654;45.042;38.994;2022-09-02T00:25:04;100829.91;;;25.07;52.60
50684;BME280;36654;45.042;38.994;2022-09-02T00:27:30;100837.25;;;25.05;53.08
50684;BME280;36654;45.042;38.994;2022-09-02T00:29:56;100818.84;;;24.93;52.92
50684;BME280;36654;45.042;38.994;2022-09-02T00:32:21;100841.06;;;25.01;53.12
50684;BME280;36654;45.042;38.994;2022-09-02T00:34:47;100819.81;;;24.92;53.08
50684;BME280;36654;45.042;38.994;2022-09-02T00:37:13;100845.47;;;25.04;53.10
50684;BME280;36654;45.042;38.994;2022-09-02T00:39:39;100844.56;;;25.03;53.40
50684;BME280;36654;45.042;38.994;2022-09-02T00:42:05;100832.25;;;24.96;53.41
50684;BME280;36654;45.042;38.994;2022-09-02T00:44:31;100799.09;;;24.70;53.25
50684;BME280;36654;45.042;38.994;2022-09-02T00:46:58;100804.63;;;24.69;53.66
50684;BME280;36654;45.042;38.994;2022-09-02T00:49:27;100859.66;;;24.90;54.09
50684;BME280;36654;45.042;38.994;2022-09-02T00:52:01;100862.56;;;24.85;54.03
50684;BME280;36654;45.042;38.994;2022-09-02T00:54:30;100875.94;;;24.90;53.94
50684;BME280;36654;45.042;38.994;2022-09-02T00:56:57;100872.41;;;24.88;54.10
50684;BME280;36654;45.042;38.994;2022-09-02T00:59:37;100870.81;;;24.84;54.15
50684;BME280;36654;45.042;38.994;2022-09-02T01:02:06;100883.41;;;24.85;54.29
50684;BME280;36654;45.042;38.994;2022-09-02T01:04:34;100887.06;;;24.84;54.51
50684;BME280;36654;45.042;38.994;2022-09-02T01:07:00;100880.50;;;24.69;54.84
50684;BME280;36654;45.042;38.994;2022-09-02T01:09:27;100902.94;;;24.72;54.76
50684;BME280;36654;45.042;38.994;2022-09-02T01:11:56;100901.22;;;24.70;54.98
50684;BME280;36654;45.042;38.994;2022-09-02T01:14:23;100878.94;;;24.63;55.35
50684;BME280;36654;45.042;38.994;2022-09-02T01:16:51;100896.88;;;24.66;55.24
50684;BME280;36654;45.042;38.994;2022-09-02T01:19:24;100863.47;;;24.45;55.58
50684;BME280;36654;45.042;38.994;2022-09-02T01:21:52;100899.13;;;24.56;55.58
50684;BME280;36654;45.042;38.994;2022-09-02T01:24:20;100906.19;;;24.60;55.71
50684;BME280;36654;45.042;38.994;2022-09-02T01:26:47;100904.22;;;24.64;55.78
50684;BME280;36654;45.042;38.994;2022-09-02T01:29:16;100900.63;;;24.63;55.57
50684;BME280;36654;45.042;38.994;2022-09-02T01:31:42;100894.66;;;24.55;55.67
50684;BME280;36654;45.042;38.994;2022-09-02T01:34:08;100890.56;;;24.45;55.99
50684;BME280;36654;45.042;38.994;2022-09-02T01:36:37;100892.34;;;24.46;56.35
50684;BME280;36654;45.042;38.994;2022-09-02T01:39:03;100876.06;;;24.25;56.56
50684;BME280;36654;45.042;38.994;2022-09-02T01:41:29;100878.47;;;24.11;57.16
50684;BME280;36654;45.042;38.994;2022-09-02T01:43:54;100859.13;;;24.00;57.11
50684;BME280;36654;45.042;38.994;2022-09-02T01:46:21;100814.38;;;23.69;57.45
50684;BME280;36654;45.042;38.994;2022-09-02T01:48:48;100863.31;;;23.86;57.93
50684;BME280;36654;45.042;38.994;2022-09-02T01:51:18;100867.47;;;23.94;58.22
50684;BME280;36654;45.042;38.994;2022-09-02T01:53:44;100866.47;;;23.96;58.02
50684;BME280;36654;45.042;38.994;2022-09-02T01:56:10;100878.06;;;24.00;58.29
50684;BME280;36654;45.042;38.994;2022-09-02T01:58:36;100878.06;;;24.00;58.03
50684;BME280;36654;45.042;38.994;2022-09-02T02:01:02;100867.63;;;23.90;58.37
50684;BME280;36654;45.042;38.994;2022-09-02T02:03:28;100857.94;;;23.85;58.67
50684;BME280;36654;45.042;38.994;2022-09-02T02:05:54;100869.78;;;23.82;58.48
50684;BME280;36654;45.042;38.994;2022-09-02T02:08:20;100853.19;;;23.68;58.86
50684;BME280;36654;45.042;38.994;2022-09-02T02:10:46;100864.75;;;23.73;59.38
50684;BME280;36654;45.042;38.994;2022-09-02T02:13:12;100859.44;;;23.70;59.39
50684;BME280;36654;45.042;38.994;2022-09-02T02:15:39;100872.22;;;23.66;59.19
50684;BME280;36654;45.042;38.994;2022-09-02T02:18:05;100857.34;;;23.55;59.79
50684;BME280;36654;45.042;38.994;2022-09-02T02:20:31;100872.63;;;23.56;59.65
50684;BME280;36654;45.042;38.994;2022-09-02T02:22:57;100867.22;;;23.56;59.81
50684;BME280;36654;45.042;38.994;2022-09-02T02:25:23;100890.66;;;23.57;59.83
50684;BME280;36654;45.042;38.994;2022-09-02T02:27:48;100849.00;;;23.39;60.27
50684;BME280;36654;45.042;38.994;2022-09-02T02:30:15;100890.00;;;23.50;60.29
50684;BME280;36654;45.042;38.994;2022-09-02T02:32:43;100884.72;;;23.47;60.66
50684;BME280;36654;45.042;38.994;2022-09-02T02:35:10;100882.19;;;23.42;60.45
50684;BME280;36654;45.042;38.994;2022-09-02T02:37:36;100889.56;;;23.39;60.80
50684;BME280;36654;45.042;38.994;2022-09-02T02:40:04;100870.91;;;23.31;60.69
50684;BME280;36654;45.042;38.994;2022-09-02T02:42:30;100895.03;;;23.37;60.92
50684;BME280;36654;45.042;38.994;2022-09-02T02:44:56;100909.59;;;23.33;60.93
50684;BME280;36654;45.042;38.994;2022-09-02T02:47:21;100897.16;;;23.29;61.58
50684;BME280;36654;45.042;38.994;2022-09-02T02:49:47;100904.66;;;23.21;61.95
50684;BME280;36654;45.042;38.994;2022-09-02T02:52:13;100909.53;;;23.11;62.19
50684;BME280;36654;45.042;38.994;2022-09-02T02:54:39;100916.19;;;23.02;62.37
50684;BME280;36654;45.042;38.994;2022-09-02T02:57:06;100920.03;;;22.95;62.55
50684;BME280;36654;45.042;38.994;2022-09-02T02:59:32;100910.09;;;22.96;62.72
50684;BME280;36654;45.042;38.994;2022-09-02T03:01:57;100919.94;;;22.98;62.71
50684;BME280;36654;45.042;38.994;2022-09-02T03:04:23;100923.44;;;23.02;62.75
50684;BME280;36654;45.042;38.994;2022-09-02T03:06:49;100916.19;;;23.02;62.48
50684;BME280;36654;45.042;38.994;2022-09-02T03:09:16;100941.06;;;23.12;62.20
50684;BME280;36654;45.042;38.994;2022-09-02T03:11:41;100932.16;;;23.09;62.26
50684;BME280;36654;45.042;38.994;2022-09-02T03:14:07;100957.72;;;23.25;62.01
50684;BME280;36654;45.042;38.994;2022-09-02T03:16:35;100969.28;;;23.29;61.87
50684;BME280;36654;45.042;38.994;2022-09-02T03:19:02;100971.97;;;23.29;61.84
50684;BME280;36654;45.042;38.994;2022-09-02T03:21:28;100972.75;;;23.32;61.49
50684;BME280;36654;45.042;38.994;2022-09-02T03:23:54;100990.28;;;23.45;61.26
50684;BME280;36654;45.042;38.994;2022-09-02T03:26:22;100988.22;;;23.52;61.10
50684;BME280;36654;45.042;38.994;2022-09-02T03:28:48;100988.66;;;23.41;61.05
50684;BME280;36654;45.042;38.994;2022-09-02T03:31:16;100988.66;;;23.41;61.12
50684;BME280;36654;45.042;38.994;2022-09-02T03:33:43;101008.50;;;23.40;61.33
50684;BME280;36654;45.042;38.994;2022-09-02T03:36:18;100969.81;;;23.15;61.59
50684;BME280;36654;45.042;38.994;2022-09-02T03:38:44;101005.34;;;23.29;61.41
50684;BME280;36654;45.042;38.994;2022-09-02T03:41:09;100980.03;;;23.07;61.89
50684;BME280;36654;45.042;38.994;2022-09-02T03:43:35;101002.38;;;23.12;61.88
50684;BME280;36654;45.042;38.994;2022-09-02T03:46:01;100958.56;;;22.77;62.29
50684;BME280;36654;45.042;38.994;2022-09-02T03:48:26;101026.31;;;22.97;62.58
50684;BME280;36654;45.042;38.994;2022-09-02T03:50:53;100997.94;;;22.84;63.17
50684;BME280;36654;45.042;38.994;2022-09-02T03:53:19;101000.13;;;22.73;62.96
50684;BME280;36654;45.042;38.994;2022-09-02T03:55:44;101015.47;;;22.72;63.67
50684;BME280;36654;45.042;38.994;2022-09-02T03:58:10;101001.56;;;22.56;63.96
50684;BME280;36654;45.042;38.994;2022-09-02T04:00:36;100997.97;;;22.57;64.07
50684;BME280;36654;45.042;38.994;2022-09-02T04:03:03;101003.28;;;22.86;63.71
50684;BME280;36654;45.042;38.994;2022-09-02T04:05:29;101009.09;;;23.00;63.27
50684;BME280;36654;45.042;38.994;2022-09-02T04:07:55;101004.38;;;23.07;62.65
50684;BME280;36654;45.042;38.994;2022-09-02T04:10:22;101021.66;;;23.26;62.28
50684;BME280;36654;45.042;38.994;2022-09-02T04:12:49;101005.91;;;23.61;61.43
50684;BME280;36654;45.042;38.994;2022-09-02T04:15:16;100986.03;;;23.85;60.27
50684;BME280;36654;45.042;38.994;2022-09-02T04:17:41;101006.84;;;24.07;59.68
50684;BME280;36654;45.042;38.994;2022-09-02T04:20:10;100972.72;;;24.03;58.93
50684;BME280;36654;45.042;38.994;2022-09-02T04:22:36;101001.50;;;24.49;58.17
50684;BME280;36654;45.042;38.994;2022-09-02T04:25:03;101004.19;;;24.71;57.63
50684;BME280;36654;45.042;38.994;2022-09-02T04:27:29;101015.22;;;24.87;57.08
50684;BME280;36654;45.042;38.994;2022-09-02T04:29:55;101001.47;;;24.71;56.84
50684;BME280;36654;45.042;38.994;2022-09-02T04:32:20;100992.38;;;24.72;57.28
50684;BME280;36654;45.042;38.994;2022-09-02T04:34:47;100993.72;;;24.83;57.21
50684;BME280;36654;45.042;38.994;2022-09-02T04:37:13;100996.53;;;25.02;56.34
50684;BME280;36654;45.042;38.994;2022-09-02T04:39:38;100985.47;;;25.06;55.88
50684;BME280;36654;45.042;38.994;2022-09-02T04:42:05;100972.16;;;25.21;55.97
50684;BME280;36654;45.042;38.994;2022-09-02T04:44:31;100932.22;;;25.24;54.71
50684;BME280;36654;45.042;38.994;2022-09-02T04:46:56;100921.09;;;25.49;54.40
50684;BME280;36654;45.042;38.994;2022-09-02T04:49:22;100930.81;;;25.72;53.45
50684;BME280;36654;45.042;38.994;2022-09-02T04:51:48;100973.22;;;26.13;52.46
50684;BME280;36654;45.042;38.994;2022-09-02T04:54:14;100938.06;;;26.10;51.94
50684;BME280;36654;45.042;38.994;2022-09-02T04:56:40;100992.41;;;26.46;51.79
50684;BME280;36654;45.042;38.994;2022-09-02T04:59:06;100973.47;;;26.25;52.01
50684;BME280;36654;45.042;38.994;2022-09-02T05:01:33;100960.94;;;26.23;51.97
50684;BME280;36654;45.042;38.994;2022-09-02T05:03:59;100995.69;;;26.53;51.46
50684;BME280;36654;45.042;38.994;2022-09-02T05:06:27;100997.66;;;26.49;51.08
50684;BME280;36654;45.042;38.994;2022-09-02T05:08:54;100990.78;;;26.42;51.39
50684;BME280;36654;45.042;38.994;2022-09-02T05:11:26;100967.91;;;26.29;51.36
50684;BME280;36654;45.042;38.994;2022-09-02T05:13:57;100993.09;;;26.50;50.98
50684;BME280;36654;45.042;38.994;2022-09-02T05:16:26;101007.16;;;26.77;50.70
50684;BME280;36654;45.042;38.994;2022-09-02T05:18:53;101020.00;;;26.90;50.69
50684;BME280;36654;45.042;38.994;2022-09-02T05:21:19;101014.44;;;26.94;50.03
50684;BME280;36654;45.042;38.994;2022-09-02T05:23:45;101011.59;;;26.95;50.12
50684;BME280;36654;45.042;38.994;2022-09-02T05:26:11;101010.09;;;27.07;49.65
50684;BME280;36654;45.042;38.994;2022-09-02T05:28:38;101015.47;;;27.26;49.47
50684;BME280;36654;45.042;38.994;2022-09-02T05:31:08;101004.66;;;27.24;49.19
50684;BME280;36654;45.042;38.994;2022-09-02T05:33:36;101002.47;;;27.14;49.18
50684;BME280;36654;45.042;38.994;2022-09-02T05:36:04;101000.97;;;26.90;50.07
50684;BME280;36654;45.042;38.994;2022-09-02T05:38:30;101025.38;;;26.75;50.18
50684;BME280;36654;45.042;38.994;2022-09-02T05:40:57;101000.69;;;26.43;50.31
50684;BME280;36654;45.042;38.994;2022-09-02T05:43:24;101030.16;;;26.33;51.00
50684;BME280;36654;45.042;38.994;2022-09-02T05:45:50;101043.25;;;26.25;51.23
50684;BME280;36654;45.042;38.994;2022-09-02T05:48:15;101045.19;;;26.04;51.83
50684;BME280;36654;45.042;38.994;2022-09-02T05:51:03;101057.84;;;25.86;52.36
50684;BME280;36654;45.042;38.994;2022-09-02T05:53:31;100993.03;;;25.39;52.93
50684;BME280;36654;45.042;38.994;2022-09-02T05:55:56;101007.28;;;25.44;52.92
50684;BME280;36654;45.042;38.994;2022-09-02T05:58:23;101067.59;;;25.70;52.97
50684;BME280;36654;45.042;38.994;2022-09-02T06:00:49;101065.69;;;25.72;53.09
50684;BME280;36654;45.042;38.994;2022-09-02T06:03:15;101068.25;;;25.75;53.18
50684;BME280;36654;45.042;38.994;2022-09-02T06:05:56;101069.34;;;25.71;53.33
50684;BME280;36654;45.042;38.994;2022-09-02T06:08:23;101067.75;;;25.67;53.37
50684;BME280;36654;45.042;38.994;2022-09-02T06:10:52;101066.28;;;25.59;53.11
50684;BME280;36654;45.042;38.994;2022-09-02T06:13:23;101044.59;;;25.39;53.20
50684;BME280;36654;45.042;38.994;2022-09-02T06:15:49;101072.56;;;25.60;53.47
50684;BME280;36654;45.042;38.994;2022-09-02T06:18:16;101086.59;;;25.70;53.55
50684;BME280;36654;45.042;38.994;2022-09-02T06:20:44;101076.56;;;25.72;53.49
50684;BME280;36654;45.042;38.994;2022-09-02T06:23:10;101087.13;;;25.78;53.17
50684;BME280;36654;45.042;38.994;2022-09-02T06:25:38;101073.69;;;25.75;53.20
50684;BME280;36654;45.042;38.994;2022-09-02T06:28:04;101093.91;;;25.88;53.18
50684;BME280;36654;45.042;38.994;2022-09-02T06:30:30;101091.84;;;25.93;53.11
50684;BME280;36654;45.042;38.994;2022-09-02T06:32:58;101074.78;;;25.71;53.01
50684;BME280;36654;45.042;38.994;2022-09-02T06:35:24;101104.03;;;25.85;52.63
50684;BME280;36654;45.042;38.994;2022-09-02T06:37:50;101087.13;;;25.78;53.10
50684;BME280;36654;45.042;38.994;2022-09-02T06:40:15;101061.50;;;25.65;52.98
50684;BME280;36654;45.042;38.994;2022-09-02T06:42:44;101093.91;;;25.88;52.81
50684;BME280;36654;45.042;38.994;2022-09-02T06:45:10;101082.19;;;25.88;52.61
50684;BME280;36654;45.042;38.994;2022-09-02T06:47:36;101083.19;;;25.85;52.91
50684;BME280;36654;45.042;38.994;2022-09-02T06:50:02;101081.31;;;25.87;52.75
50684;BME280;36654;45.042;38.994;2022-09-02T06:52:28;101091.28;;;26.06;52.05
50684;BME280;36654;45.042;38.994;2022-09-02T06:54:53;101045.56;;;25.76;52.33
50684;BME280;36654;45.042;38.994;2022-09-02T06:57:20;101094.81;;;26.08;52.07
50684;BME280;36654;45.042;38.994;2022-09-02T06:59:46;101085.56;;;26.12;52.19
50684;BME280;36654;45.042;38.994;2022-09-02T07:02:12;101048.56;;;25.90;51.82
50684;BME280;36654;45.042;38.994;2022-09-02T07:04:39;101077.31;;;26.13;51.92
50684;BME280;36654;45.042;38.994;2022-09-02T07:07:24;101025.16;;;25.88;51.83
50684;BME280;36654;45.042;38.994;2022-09-02T07:09:50;101084.81;;;26.27;51.25
50684;BME280;36654;45.042;38.994;2022-09-02T07:12:15;101089.81;;;26.36;51.00
50684;BME280;36654;45.042;38.994;2022-09-02T07:14:42;101095.25;;;26.36;50.51
50684;BME280;36654;45.042;38.994;2022-09-02T07:17:09;101087.22;;;26.33;50.49
50684;BME280;36654;45.042;38.994;2022-09-02T07:19:36;101089.94;;;26.33;50.58
50684;BME280;36654;45.042;38.994;2022-09-02T07:22:06;101086.13;;;26.37;50.41
50684;BME280;36654;45.042;38.994;2022-09-02T07:24:34;101081.56;;;26.38;50.36
50684;BME280;36654;45.042;38.994;2022-09-02T07:27:00;101087.75;;;26.41;50.68
50684;BME280;36654;45.042;38.994;2022-09-02T07:29:26;101043.91;;;26.30;50.06
50684;BME280;36654;45.042;38.994;2022-09-02T07:31:52;101078.53;;;26.63;49.78
50684;BME280;36654;45.042;38.994;2022-09-02T07:34:18;101076.72;;;26.81;49.17
50684;BME280;36654;45.042;38.994;2022-09-02T07:36:45;101074.75;;;27.02;48.93
50684;BME280;36654;45.042;38.994;2022-09-02T07:39:12;101065.94;;;27.14;48.40
50684;BME280;36654;45.042;38.994;2022-09-02T07:41:42;101026.72;;;27.01;48.07
50684;BME280;36654;45.042;38.994;2022-09-02T07:44:09;101080.81;;;27.42;47.65
50684;BME280;36654;45.042;38.994;2022-09-02T07:46:35;101069.75;;;27.45;47.32
50684;BME280;36654;45.042;38.994;2022-09-02T07:49:05;101062.72;;;27.41;46.87
50684;BME280;36654;45.042;38.994;2022-09-02T07:51:33;101071.75;;;27.59;47.17
50684;BME280;36654;45.042;38.994;2022-09-02T07:54:00;101091.19;;;27.68;46.86
50684;BME280;36654;45.042;38.994;2022-09-02T07:56:26;101079.81;;;27.60;46.68
50684;BME280;36654;45.042;38.994;2022-09-02T07:58:52;101076.16;;;27.61;47.01
50684;BME280;36654;45.042;38.994;2022-09-02T08:01:18;101092.31;;;27.64;47.30
50684;BME280;36654;45.042;38.994;2022-09-02T08:03:45;101086.38;;;27.73;46.42
50684;BME280;36654;45.042;38.994;2022-09-02T08:06:11;101093.38;;;27.78;46.63
50684;BME280;36654;45.042;38.994;2022-09-02T08:08:39;101087.66;;;27.84;46.25
50684;BME280;36654;45.042;38.994;2022-09-02T08:11:05;101076.75;;;27.84;45.94
50684;BME280;36654;45.042;38.994;2022-09-02T08:13:32;101065.00;;;27.83;46.20
50684;BME280;36654;45.042;38.994;2022-09-02T08:15:58;101069.91;;;27.92;46.19
50684;BME280;36654;45.042;38.994;2022-09-02T08:18:25;101067.34;;;28.05;45.49
50684;BME280;36654;45.042;38.994;2022-09-02T08:20:50;101064.75;;;28.04;45.57
50684;BME280;36654;45.042;38.994;2022-09-02T08:23:16;101070.97;;;28.22;45.11
50684;BME280;36654;45.042;38.994;2022-09-02T08:25:42;101074.84;;;28.33;45.03
50684;BME280;36654;45.042;38.994;2022-09-02T08:28:08;101064.63;;;28.37;44.78
50684;BME280;36654;45.042;38.994;2022-09-02T08:30:34;101064.38;;;28.42;44.63
50684;BME280;36654;45.042;38.994;2022-09-02T08:32:59;101065.88;;;28.47;44.59
50684;BME280;36654;45.042;38.994;2022-09-02T08:35:25;101056.91;;;28.45;44.88
50684;BME280;36654;45.042;38.994;2022-09-02T08:37:51;101056.19;;;28.57;44.55
50684;BME280;36654;45.042;38.994;2022-09-02T08:40:19;101061.13;;;28.67;44.36
50684;BME280;36654;45.042;38.994;2022-09-02T08:42:54;101052.84;;;28.52;44.11
50684;BME280;36654;45.042;38.994;2022-09-02T08:45:26;101053.25;;;28.46;43.50
50684;BME280;36654;45.042;38.994;2022-09-02T08:48:07;101051.91;;;28.53;43.53
50684;BME280;36654;45.042;38.994;2022-09-02T08:50:39;101046.88;;;28.62;43.89
50684;BME280;36654;45.042;38.994;2022-09-02T08:53:29;101053.91;;;28.66;43.36
50684;BME280;36654;45.042;38.994;2022-09-02T08:55:58;101032.69;;;28.71;42.70
50684;BME280;36654;45.042;38.994;2022-09-02T08:58:29;101031.84;;;28.85;42.63
50684;BME280;36654;45.042;38.994;2022-09-02T09:01:06;101030.69;;;28.89;42.40
50684;BME280;36654;45.042;38.994;2022-09-02T09:04:14;101025.84;;;28.94;42.76
50684;BME280;36654;45.042;38.994;2022-09-02T09:07:04;101014.41;;;28.87;42.55
50684;BME280;36654;45.042;38.994;2022-09-02T09:12:27;101023.66;;;29.15;41.75
50684;BME280;36654;45.042;38.994;2022-09-02T09:17:59;101019.97;;;29.16;41.18
50684;BME280;36654;45.042;38.994;2022-09-02T09:20:33;101033.22;;;29.22;40.86
50684;BME280;36654;45.042;38.994;2022-09-02T09:23:01;101025.41;;;29.30;40.49
50684;BME280;36654;45.042;38.994;2022-09-02T09:25:31;101001.44;;;29.21;40.85
50684;BME280;36654;45.042;38.994;2022-09-02T09:28:00;101037.06;;;29.48;40.37
50684;BME280;36654;45.042;38.994;2022-09-02T09:30:27;101025.06;;;29.51;40.09
50684;BME280;36654;45.042;38.994;2022-09-02T09:32:58;101016.88;;;29.36;40.08
50684;BME280;36654;45.042;38.994;2022-09-02T09:35:25;101014.34;;;29.33;40.39
50684;BME280;36654;45.042;38.994;2022-09-02T09:37:55;101013.25;;;29.36;40.29
50684;BME280;36654;45.042;38.994;2022-09-02T09:40:25;101038.22;;;29.44;40.49
50684;BME280;36654;45.042;38.994;2022-09-02T09:42:55;101038.53;;;29.54;40.41
50684;BME280;36654;45.042;38.994;2022-09-02T09:45:31;101031.78;;;29.59;39.94
50684;BME280;36654;45.042;38.994;2022-09-02T09:48:25;101027.75;;;29.65;39.87
50684;BME280;36654;45.042;38.994;2022-09-02T09:53:22;101021.53;;;29.77;39.44
50684;BME280;36654;45.042;38.994;2022-09-02T09:56:02;101027.00;;;29.77;39.22
50684;BME280;36654;45.042;38.994;2022-09-02T10:01:12;101016.69;;;29.68;39.76
50684;BME280;36654;45.042;38.994;2022-09-02T10:03:44;100997.34;;;29.57;39.74
50684;BME280;36654;45.042;38.994;2022-09-02T10:06:21;101001.66;;;29.61;39.80
50684;BME280;36654;45.042;38.994;2022-09-02T10:08:56;100991.09;;;29.40;40.14
50684;BME280;36654;45.042;38.994;2022-09-02T10:11:28;100981.56;;;29.19;39.95
50684;BME280;36654;45.042;38.994;2022-09-02T10:16:34;101017.44;;;29.27;40.06
50684;BME280;36654;45.042;38.994;2022-09-02T10:19:35;101010.22;;;29.26;40.10
50684;BME280;36654;45.042;38.994;2022-09-02T10:30:21;101000.44;;;29.65;39.68
50684;BME280;36654;45.042;38.994;2022-09-02T10:33:21;101033.63;;;29.87;39.50
50684;BME280;36654;45.042;38.994;2022-09-02T10:36:23;101019.00;;;29.88;38.81
50684;BME280;36654;45.042;38.994;2022-09-02T10:38:55;100957.66;;;29.51;38.73
50684;BME280;36654;45.042;38.994;2022-09-02T10:41:42;100973.56;;;29.59;38.97
50684;BME280;36654;45.042;38.994;2022-09-02T10:46:58;100990.72;;;29.75;38.51
50684;BME280;36654;45.042;38.994;2022-09-02T10:50:01;100985.06;;;29.78;38.60
50684;BME280;36654;45.042;38.994;2022-09-02T10:53:03;101019.28;;;29.98;38.86
50684;BME280;36654;45.042;38.994;2022-09-02T10:56:02;101019.75;;;30.05;38.75
50684;BME280;36654;45.042;38.994;2022-09-02T11:01:19;100986.66;;;29.95;38.66
50684;BME280;36654;45.042;38.994;2022-09-02T11:06:24;101025.03;;;30.08;38.26
50684;BME280;36654;45.042;38.994;2022-09-02T11:08:59;100960.28;;;29.81;38.24
50684;BME280;36654;45.042;38.994;2022-09-02T11:11:54;101004.25;;;30.05;38.34
50684;BME280;36654;45.042;38.994;2022-09-02T11:14:31;101003.03;;;30.09;38.04
50684;BME280;36654;45.042;38.994;2022-09-02T11:17:09;100992.00;;;30.11;38.17
50684;BME280;36654;45.042;38.994;2022-09-02T11:19:50;100985.00;;;29.93;38.46
50684;BME280;36654;45.042;38.994;2022-09-02T11:25:01;100985.81;;;29.95;38.44
50684;BME280;36654;45.042;38.994;2022-09-02T11:27:45;100996.13;;;30.04;38.51
50684;BME280;36654;45.042;38.994;2022-09-02T11:30:18;100975.22;;;30.03;38.54
50684;BME280;36654;45.042;38.994;2022-09-02T11:33:09;101007.69;;;30.22;37.97
50684;BME280;36654;45.042;38.994;2022-09-02T11:35:37;100968.38;;;30.10;38.13
50684;BME280;36654;45.042;38.994;2022-09-02T11:38:36;100987.69;;;30.21;37.81
50684;BME280;36654;45.042;38.994;2022-09-02T11:41:37;100986.56;;;30.11;37.99
50684;BME280;36654;45.042;38.994;2022-09-02T11:50:18;100968.38;;;30.24;37.51
50684;BME280;36654;45.042;38.994;2022-09-02T11:58:00;100981.53;;;30.18;37.36
50684;BME280;36654;45.042;38.994;2022-09-02T12:00:34;100988.28;;;30.12;37.25
50684;BME280;36654;45.042;38.994;2022-09-02T12:08:03;100961.25;;;30.07;37.26
50684;BME280;36654;45.042;38.994;2022-09-02T12:10:55;100946.31;;;30.13;37.42
50684;BME280;36654;45.042;38.994;2022-09-02T12:13:43;100941.03;;;30.10;37.30
50684;BME280;36654;45.042;38.994;2022-09-02T12:21:32;100878.88;;;29.86;36.63
50684;BME280;36654;45.042;38.994;2022-09-02T12:24:01;100908.16;;;30.12;36.94
50684;BME280;36654;45.042;38.994;2022-09-02T12:29:12;100914.81;;;30.20;36.80
50684;BME280;36654;45.042;38.994;2022-09-02T12:31:54;100907.41;;;30.22;36.53
50684;BME280;36654;45.042;38.994;2022-09-02T12:45:04;100906.84;;;30.44;36.43
50684;BME280;36654;45.042;38.994;2022-09-02T12:50:27;100916.13;;;30.42;35.87
50684;BME280;36654;45.042;38.994;2022-09-02T12:56:02;100908.91;;;30.41;36.08
50684;BME280;36654;45.042;38.994;2022-09-02T12:58:36;100904.41;;;30.40;36.08
50684;BME280;36654;45.042;38.994;2022-09-02T13:04:23;100917.88;;;30.43;36.00
50684;BME280;36654;45.042;38.994;2022-09-02T13:07:19;100913.72;;;30.37;35.77
50684;BME280;36654;45.042;38.994;2022-09-02T13:32:26;100880.72;;;30.13;35.63
50684;BME280;36654;45.042;38.994;2022-09-02T13:34:56;100935.50;;;30.39;35.68
50684;BME280;36654;45.042;38.994;2022-09-02T13:37:37;100918.84;;;30.29;35.96
50684;BME280;36654;45.042;38.994;2022-09-02T13:40:16;100926.72;;;30.34;35.90
50684;BME280;36654;45.042;38.994;2022-09-02T13:42:51;100926.50;;;30.37;35.89
50684;BME280;36654;45.042;38.994;2022-09-02T13:45:20;100875.47;;;30.23;35.38
50684;BME280;36654;45.042;38.994;2022-09-02T13:47:51;100928.09;;;30.53;35.51
50684;BME280;36654;45.042;38.994;2022-09-02T13:50:27;100941.63;;;30.55;35.62
50684;BME280;36654;45.042;38.994;2022-09-02T13:53:01;100882.19;;;30.31;35.08
50684;BME280;36654;45.042;38.994;2022-09-02T13:55:28;100947.56;;;30.62;35.57
50684;BME280;36654;45.042;38.994;2022-09-02T13:58:06;100927.78;;;30.58;35.47
50684;BME280;36654;45.042;38.994;2022-09-02T14:03:12;100923.16;;;30.59;35.38
50684;BME280;36654;45.042;38.994;2022-09-02T14:05:42;100927.00;;;30.56;34.95
50684;BME280;36654;45.042;38.994;2022-09-02T14:08:15;100918.22;;;30.51;35.56
50684;BME280;36654;45.042;38.994;2022-09-02T14:10:43;100923.72;;;30.64;35.29
50684;BME280;36654;45.042;38.994;2022-09-02T14:13:10;100925.28;;;30.68;35.25
50684;BME280;36654;45.042;38.994;2022-09-02T14:15:37;100892.38;;;30.42;35.16
50684;BME280;36654;45.042;38.994;2022-09-02T14:18:10;100925.78;;;30.60;35.09
50684;BME280;36654;45.042;38.994;2022-09-02T14:20:50;100917.47;;;30.62;35.31
50684;BME280;36654;45.042;38.994;2022-09-02T14:23:18;100901.16;;;30.60;35.31
50684;BME280;36654;45.042;38.994;2022-09-02T14:25:53;100899.63;;;30.56;35.60
50684;BME280;36654;45.042;38.994;2022-09-02T14:28:29;100878.72;;;30.55;35.23
50684;BME280;36654;45.042;38.994;2022-09-02T14:31:06;100882.13;;;30.71;35.22
50684;BME280;36654;45.042;38.994;2022-09-02T14:38:56;100871.50;;;30.80;34.73
50684;BME280;36654;45.042;38.994;2022-09-02T14:41:27;100872.59;;;30.77;35.06